Terminal Aerodrome Forecast
Issued by NWS

Home | Current Version | Previous Version | Text Only | Print | Product List | Glossary On
Versions: 1 2 3 4 5 6 7 8 9 10 11 12 13 14 15 16 17 18
000
FTUS43 KPAH 300500
TAFCGI
TAF
KCGI 300527Z 3006/3106 00000KT P6SM SKC
      TEMPO 3009/3013 4SM BR
     FM301500 18006KT P6SM SCT100 BKN250
     FM310200 17003KT P6SM SCT050 OVC100=

USA.gov is the U.S. government's official web portal to all federal, state and local government web resources and services.